createdAt,value
2023-04-13T00:02:24.367Z,7.97
2023-04-13T00:05:10.734Z,8.04
2023-04-13T00:07:56.676Z,8.04
2023-04-13T00:10:42.003Z,8.16
2023-04-13T00:13:26.213Z,8.22
2023-04-13T00:16:11.201Z,8.21
2023-04-13T00:18:55.076Z,8.03
2023-04-13T00:21:42.228Z,8.05
2023-04-13T00:24:27.788Z,8.05
2023-04-13T00:27:12.194Z,8.08
2023-04-13T00:29:56.388Z,8.10
2023-04-13T00:32:42.407Z,8.06
2023-04-13T00:35:26.966Z,8.01
2023-04-13T00:38:11.612Z,7.86
2023-04-13T00:40:58.594Z,7.94
2023-04-13T00:43:42.575Z,7.81
2023-04-13T00:46:26.764Z,7.61
2023-04-13T00:49:12.727Z,7.75
2023-04-13T00:51:57.199Z,7.80
2023-04-13T00:54:41.650Z,7.88
2023-04-13T00:57:27.305Z,7.68
2023-04-13T01:00:12.928Z,7.74
2023-04-13T01:02:57.356Z,7.75
2023-04-13T01:05:50.578Z,7.56
2023-04-13T01:08:38.885Z,7.59
2023-04-13T01:11:31.653Z,7.51
2023-04-13T01:14:26.332Z,7.60
2023-04-13T01:20:18.765Z,7.55
2023-04-13T01:23:07.628Z,7.55
2023-04-13T01:25:57.735Z,7.53
2023-04-13T01:28:44.056Z,7.65
2023-04-13T01:31:29.889Z,7.55
2023-04-13T01:34:14.232Z,7.65
2023-04-13T01:36:58.658Z,7.55
2023-04-13T01:39:42.474Z,7.68
2023-04-13T01:42:37.658Z,7.69
2023-04-13T01:45:26.497Z,7.81
2023-04-13T01:48:15.964Z,7.75
2023-04-13T01:51:24.368Z,7.81
2023-04-13T01:54:14.840Z,7.65
2023-04-13T01:57:03.275Z,7.74
2023-04-13T01:59:50.598Z,7.60
2023-04-13T02:02:39.351Z,7.67
2023-04-13T02:05:24.178Z,7.78
2023-04-13T02:08:09.508Z,7.78
2023-04-13T02:10:58.922Z,7.65
2023-04-13T02:13:43.620Z,7.54
2023-04-13T02:16:51.980Z,7.61
2023-04-13T02:19:37.414Z,7.63
2023-04-13T02:22:22.298Z,7.62
2023-04-13T02:25:08.587Z,7.54
2023-04-13T02:27:52.809Z,7.51
2023-04-13T02:30:37.846Z,7.54
2023-04-13T02:33:22.041Z,7.50
2023-04-13T02:36:09.232Z,7.38
2023-04-13T02:38:56.197Z,7.40
2023-04-13T02:41:47.727Z,7.41
2023-04-13T02:44:38.667Z,7.33
2023-04-13T02:47:22.843Z,7.40
2023-04-13T02:50:08.112Z,7.44
2023-04-13T02:53:00.571Z,7.25
2023-04-13T02:55:46.085Z,6.91
2023-04-13T02:58:31.950Z,6.75
2023-04-13T03:01:19.589Z,6.81
2023-04-13T03:04:04.037Z,6.79
2023-04-13T03:06:48.880Z,6.69
2023-04-13T03:09:34.723Z,6.47
2023-04-13T03:12:20.225Z,6.77
2023-04-13T03:15:11.209Z,6.59
2023-04-13T03:18:00.157Z,6.70
2023-04-13T03:20:46.241Z,6.68
2023-04-13T03:23:30.858Z,6.80
2023-04-13T03:26:16.433Z,6.78
2023-04-13T03:29:00.498Z,6.84
2023-04-13T03:31:46.405Z,6.82
2023-04-13T03:34:31.137Z,6.96
2023-04-13T03:37:19.865Z,7.14
2023-04-13T03:40:05.455Z,7.24
2023-04-13T03:42:59.585Z,7.25
2023-04-13T03:45:46.353Z,7.15
2023-04-13T03:48:33.093Z,6.57
2023-04-13T03:51:20.324Z,6.79
2023-04-13T03:54:06.187Z,7.12
2023-04-13T03:56:52.554Z,6.94
2023-04-13T03:59:38.058Z,7.58
2023-04-13T04:02:26.440Z,7.61
2023-04-13T04:05:11.585Z,7.76
2023-04-13T04:07:57.162Z,7.62
2023-04-13T04:10:41.296Z,7.59
2023-04-13T04:13:26.175Z,7.69
2023-04-13T04:16:14.216Z,7.63
2023-04-13T04:19:04.243Z,7.76
2023-04-13T04:21:48.087Z,7.95
2023-04-13T04:24:34.983Z,7.99
2023-04-13T04:27:18.845Z,7.93
2023-04-13T04:30:07.303Z,7.89
2023-04-13T04:32:55.017Z,8.12
2023-04-13T04:35:43.305Z,8.22
2023-04-13T04:38:27.557Z,8.23
2023-04-13T04:41:14.175Z,8.02
2023-04-13T04:44:02.964Z,7.92
2023-04-13T04:46:54.218Z,7.90
2023-04-13T04:49:40.815Z,8.17
2023-04-13T04:52:25.594Z,8.01
2023-04-13T04:55:11.209Z,7.87
2023-04-13T04:57:57.765Z,8.10
2023-04-13T05:00:42.010Z,8.26
2023-04-13T05:03:30.146Z,8.08
2023-04-13T05:06:26.645Z,8.10
2023-04-13T05:09:10.549Z,8.16
2023-04-13T05:11:58.443Z,8.35
2023-04-13T05:14:42.241Z,8.52
2023-04-13T05:17:27.825Z,8.60
2023-04-13T05:20:13.725Z,8.55
2023-04-13T05:23:16.596Z,8.88
2023-04-13T05:26:08.420Z,8.88
2023-04-13T05:28:52.635Z,9.02
2023-04-13T05:31:38.502Z,9.26
2023-04-13T05:34:22.744Z,9.34
2023-04-13T05:37:27.286Z,9.23
2023-04-13T05:40:15.085Z,9.42
2023-04-13T05:42:59.746Z,9.52
2023-04-13T05:45:47.686Z,9.61
2023-04-13T05:48:34.404Z,9.71
2023-04-13T05:51:21.627Z,9.48
2023-04-13T05:54:06.288Z,9.36
2023-04-13T05:56:52.119Z,9.60
2023-04-13T05:59:36.945Z,9.67
2023-04-13T06:02:21.107Z,9.98
2023-04-13T06:05:06.824Z,9.82
2023-04-13T06:07:53.794Z,9.90
2023-04-13T06:10:38.033Z,9.81
2023-04-13T06:13:23.600Z,10.01
2023-04-13T06:16:08.670Z,10.35
2023-04-13T06:18:52.608Z,10.50
2023-04-13T06:21:36.632Z,10.62
2023-04-13T06:24:21.100Z,10.59
2023-04-13T06:27:05.987Z,10.67
2023-04-13T06:29:51.757Z,11.02
2023-04-13T06:32:36.044Z,11.01
2023-04-13T06:35:21.960Z,11.11
2023-04-13T06:38:10.609Z,11.11
2023-04-13T06:41:23.651Z,11.16
2023-04-13T06:44:08.812Z,11.23
2023-04-13T06:47:03.869Z,11.34
2023-04-13T06:49:48.546Z,11.23
2023-04-13T06:52:33.592Z,10.86
2023-04-13T06:55:17.903Z,11.23
2023-04-13T06:58:02.113Z,11.20
2023-04-13T07:00:46.487Z,11.21
2023-04-13T07:03:32.896Z,11.19
2023-04-13T07:06:17.178Z,11.21
2023-04-13T07:09:01.605Z,11.23
2023-04-13T07:11:47.396Z,11.40
2023-04-13T07:14:35.042Z,11.87
2023-04-13T07:17:19.513Z,11.95
2023-04-13T07:20:05.839Z,12.21
2023-04-13T07:22:49.794Z,11.88
2023-04-13T07:25:35.536Z,12.18
2023-04-13T07:28:20.047Z,12.36
2023-04-13T07:31:07.546Z,12.52
2023-04-13T07:33:52.987Z,12.53
2023-04-13T07:36:44.786Z,12.62
2023-04-13T07:39:34.322Z,12.77
2023-04-13T07:42:19.022Z,12.52
2023-04-13T07:45:10.723Z,12.83
2023-04-13T07:47:55.174Z,12.64
2023-04-13T07:50:42.337Z,12.87
2023-04-13T07:53:31.686Z,12.93
2023-04-13T07:56:16.487Z,12.97
2023-04-13T07:59:01.079Z,12.70
2023-04-13T08:01:45.414Z,12.00
2023-04-13T08:04:30.077Z,13.05
2023-04-13T08:07:16.267Z,13.06
2023-04-13T08:10:04.471Z,13.13
2023-04-13T08:12:48.694Z,13.46
2023-04-13T08:15:35.688Z,13.32
2023-04-13T08:18:19.749Z,13.61
2023-04-13T08:21:11.034Z,13.75
2023-04-13T08:23:56.302Z,13.95
2023-04-13T08:26:41.771Z,14.13
2023-04-13T08:29:25.783Z,14.08
2023-04-13T08:32:10.278Z,14.17
2023-04-13T08:34:55.757Z,14.15
2023-04-13T08:37:39.980Z,14.19
2023-04-13T08:40:25.152Z,14.38
2023-04-13T08:43:13.541Z,14.36
2023-04-13T08:45:58.005Z,14.67
2023-04-13T08:48:53.431Z,14.72
2023-04-13T08:51:42.161Z,14.75
2023-04-13T08:54:26.256Z,14.73
2023-04-13T08:57:12.452Z,14.33
2023-04-13T08:59:59.137Z,14.45
2023-04-13T09:03:00.370Z,14.67
2023-04-13T09:05:52.481Z,14.57
2023-04-13T09:08:38.219Z,14.54
2023-04-13T09:11:25.480Z,14.84
2023-04-13T09:14:10.127Z,15.01
2023-04-13T09:16:56.079Z,15.02
2023-04-13T09:19:52.745Z,15.22
2023-04-13T09:22:36.693Z,15.30
2023-04-13T09:25:25.138Z,15.63
2023-04-13T09:28:17.140Z,15.65
2023-04-13T09:31:05.649Z,15.61
2023-04-13T09:33:53.624Z,15.72
2023-04-13T09:36:49.681Z,16.20
2023-04-13T09:39:37.733Z,16.55
2023-04-13T09:42:23.904Z,16.39
2023-04-13T09:45:08.831Z,16.28
2023-04-13T09:47:53.452Z,16.46
2023-04-13T09:50:39.121Z,16.34
2023-04-13T09:53:22.946Z,16.21
2023-04-13T09:56:07.791Z,16.40
2023-04-13T09:58:51.760Z,16.29
2023-04-13T10:01:35.872Z,16.62
2023-04-13T10:04:20.267Z,16.54
2023-04-13T10:07:07.328Z,16.47
2023-04-13T10:09:54.085Z,16.78
2023-04-13T10:12:42.214Z,16.51
2023-04-13T10:15:39.665Z,16.87
2023-04-13T10:18:36.812Z,16.82
2023-04-13T10:21:21.023Z,16.87
2023-04-13T10:24:11.615Z,16.54
2023-04-13T10:26:56.322Z,16.55
2023-04-13T10:29:40.272Z,16.85
2023-04-13T10:32:25.786Z,16.95
2023-04-13T10:35:15.337Z,16.57
2023-04-13T10:37:59.699Z,16.40
2023-04-13T10:40:46.421Z,16.45
2023-04-13T10:43:31.277Z,16.59
2023-04-13T10:46:15.345Z,16.72
2023-04-13T10:49:00.435Z,16.68
2023-04-13T10:51:46.220Z,16.98
2023-04-13T10:54:31.009Z,16.82
2023-04-13T10:57:16.983Z,17.45
2023-04-13T11:00:00.832Z,17.62
2023-04-13T11:02:47.230Z,17.38
2023-04-13T11:05:31.846Z,16.87
2023-04-13T11:08:20.738Z,17.18
2023-04-13T11:11:05.331Z,17.05
2023-04-13T11:13:51.109Z,17.28
2023-04-13T11:16:45.335Z,16.98
2023-04-13T11:19:29.744Z,17.20
2023-04-13T11:22:18.804Z,17.50
2023-04-13T11:25:10.240Z,17.25
2023-04-13T11:27:58.863Z,17.29
2023-04-13T11:30:44.664Z,17.41
2023-04-13T11:33:30.209Z,17.16
2023-04-13T11:36:14.426Z,17.53
2023-04-13T11:39:00.180Z,17.29
2023-04-13T11:41:44.728Z,16.80
2023-04-13T11:44:28.654Z,17.05
2023-04-13T11:47:18.695Z,16.99
2023-04-13T11:50:03.112Z,17.26
2023-04-13T11:52:49.052Z,16.72
2023-04-13T11:55:50.069Z,16.68
2023-04-13T11:58:38.689Z,16.38
2023-04-13T12:01:28.368Z,16.25
2023-04-13T12:04:19.167Z,16.63
2023-04-13T12:07:04.048Z,17.09
2023-04-13T12:15:42.800Z,16.96
2023-04-13T12:18:36.539Z,17.30
2023-04-13T12:21:23.697Z,17.40
2023-04-13T12:24:08.438Z,17.17
2023-04-13T12:29:39.878Z,17.42
2023-04-13T12:32:26.996Z,16.98
2023-04-13T12:35:11.301Z,17.26
2023-04-13T12:37:56.922Z,17.36
2023-04-13T12:40:41.257Z,17.54
2023-04-13T12:43:25.310Z,17.86
2023-04-13T12:46:09.481Z,17.59
2023-04-13T12:48:54.326Z,17.80
2023-04-13T12:51:38.233Z,17.71
2023-04-13T12:54:23.572Z,17.92
2023-04-13T12:57:07.804Z,17.95
2023-04-13T12:59:51.920Z,18.14
2023-04-13T13:02:36.682Z,18.26
2023-04-13T13:05:20.824Z,17.92
2023-04-13T13:08:04.824Z,18.23
2023-04-13T13:10:50.153Z,18.27
2023-04-13T13:13:33.967Z,18.19
2023-04-13T13:16:19.590Z,18.07
2023-04-13T13:19:03.621Z,17.96
2023-04-13T13:21:47.818Z,17.17
2023-04-13T13:24:31.980Z,16.91
2023-04-13T13:27:58.636Z,16.50
2023-04-13T13:30:22.085Z,16.39
2023-04-13T13:33:06.523Z,16.91
2023-04-13T13:35:50.572Z,16.76
2023-04-13T13:38:36.869Z,16.46
2023-04-13T13:41:21.210Z,16.96
2023-04-13T13:44:06.954Z,16.95
2023-04-13T13:46:50.855Z,16.49
2023-04-13T13:49:37.388Z,16.44
2023-04-13T13:52:24.125Z,16.55
2023-04-13T13:55:11.046Z,16.36
2023-04-13T13:57:56.193Z,16.34
2023-04-13T14:00:41.547Z,16.38
2023-04-13T14:03:25.688Z,16.38
2023-04-13T14:06:10.009Z,16.50
2023-04-13T14:08:55.840Z,16.41
2023-04-13T14:11:39.680Z,16.26
2023-04-13T14:14:23.521Z,16.53
2023-04-13T14:17:08.761Z,16.48
2023-04-13T14:19:52.594Z,16.54
2023-04-13T14:22:36.688Z,16.68
2023-04-13T14:25:20.637Z,16.81
2023-04-13T14:28:04.503Z,16.81
2023-04-13T14:30:48.356Z,17.00
2023-04-13T14:33:33.629Z,16.61
2023-04-13T14:36:19.357Z,16.65
2023-04-13T14:39:05.254Z,16.69
2023-04-13T14:41:49.127Z,16.75
2023-04-13T14:44:32.996Z,16.96
2023-04-13T14:47:16.743Z,16.30
2023-04-13T14:50:02.246Z,16.07
2023-04-13T14:52:47.180Z,15.93
2023-04-13T14:55:31.860Z,15.80
2023-04-13T14:58:16.067Z,15.74
2023-04-13T15:00:59.991Z,15.38
2023-04-13T15:03:43.852Z,15.32
2023-04-13T15:06:29.213Z,15.37
2023-04-13T15:09:13.141Z,15.22
2023-04-13T15:11:56.902Z,15.16
2023-04-13T15:14:40.737Z,15.32
2023-04-13T15:17:24.647Z,15.08
2023-04-13T15:20:10.696Z,15.22
2023-04-13T15:22:57.014Z,15.08
2023-04-13T15:25:41.897Z,15.11
2023-04-13T15:28:25.704Z,14.77
2023-04-13T15:31:09.712Z,14.96
2023-04-13T15:33:53.526Z,14.93
2023-04-13T15:36:37.512Z,14.55
2023-04-13T15:39:23.050Z,14.44
2023-04-13T15:42:07.417Z,14.30
2023-04-13T15:44:51.372Z,14.37
2023-04-13T15:47:36.130Z,14.54
2023-04-13T15:50:20.198Z,14.11
2023-04-13T15:53:03.886Z,14.10
2023-04-13T15:55:49.085Z,14.07
2023-04-13T15:58:33.229Z,14.12
2023-04-13T16:01:17.014Z,14.09
2023-04-13T16:04:00.955Z,14.24
2023-04-13T16:06:44.903Z,13.92
2023-04-13T16:09:30.725Z,13.80
2023-04-13T16:12:17.645Z,13.71
2023-04-13T16:15:01.601Z,13.94
2023-04-13T16:17:48.031Z,13.70
2023-04-13T16:20:32.275Z,13.72
2023-04-13T16:23:16.056Z,14.04
2023-04-13T16:26:00.210Z,13.68
2023-04-13T16:28:45.575Z,13.37
2023-04-13T16:31:29.480Z,13.29
2023-04-13T16:34:25.662Z,13.08
2023-04-13T16:37:10.465Z,13.13
2023-04-13T16:39:54.431Z,13.19
2023-04-13T16:42:38.751Z,13.11
2023-04-13T16:45:24.615Z,13.01
2023-04-13T16:48:08.638Z,12.85
2023-04-13T16:50:59.428Z,12.91
2023-04-13T16:53:44.333Z,12.82
2023-04-13T16:56:30.325Z,12.81
2023-04-13T16:59:14.236Z,12.53
2023-04-13T17:01:59.470Z,12.48
2023-04-13T17:04:43.400Z,12.32
2023-04-13T17:07:28.317Z,12.23
2023-04-13T17:10:13.809Z,12.57
2023-04-13T17:12:57.712Z,12.04
2023-04-13T17:15:41.834Z,12.31
2023-04-13T17:18:27.400Z,12.29
2023-04-13T17:21:11.497Z,12.26
2023-04-13T17:23:55.323Z,12.17
2023-04-13T17:26:39.548Z,12.23
2023-04-13T17:29:23.735Z,12.37
2023-04-13T17:32:08.128Z,12.16
2023-04-13T17:34:53.527Z,11.87
2023-04-13T17:37:37.433Z,12.05
2023-04-13T17:40:21.859Z,12.06
2023-04-13T17:43:07.849Z,11.84
2023-04-13T17:45:51.737Z,11.85
2023-04-13T17:48:36.175Z,12.06
2023-04-13T17:51:27.691Z,11.60
2023-04-13T17:54:13.436Z,11.74
2023-04-13T17:57:02.434Z,11.58
2023-04-13T17:59:47.614Z,11.79
2023-04-13T18:02:34.644Z,11.78
2023-04-13T18:05:23.483Z,11.87
2023-04-13T18:08:09.523Z,11.70
2023-04-13T18:10:54.967Z,11.53
2023-04-13T18:13:41.632Z,11.18
2023-04-13T18:16:26.326Z,11.22
2023-04-13T18:19:11.800Z,11.36
2023-04-13T18:21:57.950Z,11.51
2023-04-13T18:24:43.304Z,11.30
2023-04-13T18:27:27.919Z,11.51
2023-04-13T18:30:13.327Z,11.16
2023-04-13T18:32:57.475Z,11.22
2023-04-13T18:35:44.431Z,11.11
2023-04-13T18:38:28.547Z,11.22
2023-04-13T18:41:14.240Z,10.83
2023-04-13T18:43:58.454Z,11.24
2023-04-13T18:46:42.470Z,11.32
2023-04-13T18:49:27.246Z,11.42
2023-04-13T18:52:11.133Z,11.07
2023-04-13T18:54:55.015Z,10.80
2023-04-13T18:57:41.690Z,10.78
2023-04-13T19:00:25.902Z,10.84
2023-04-13T19:03:10.003Z,10.75
2023-04-13T19:05:54.094Z,10.67
2023-04-13T19:08:37.890Z,10.60
2023-04-13T19:11:24.302Z,10.53
2023-04-13T19:14:09.918Z,10.43
2023-04-13T19:16:54.355Z,10.45
2023-04-13T19:19:38.279Z,10.44
2023-04-13T19:22:22.209Z,10.49
2023-04-13T19:25:07.750Z,10.13
2023-04-13T19:27:51.772Z,9.95
2023-04-13T19:30:37.142Z,9.85
2023-04-13T19:33:21.226Z,9.94
2023-04-13T19:36:06.577Z,9.90
2023-04-13T19:38:52.006Z,9.82
2023-04-13T19:41:37.531Z,9.85
2023-04-13T19:44:21.848Z,10.01
2023-04-13T19:47:07.071Z,9.92
2023-04-13T19:49:50.965Z,9.89
2023-04-13T19:52:34.875Z,9.94
2023-04-13T19:55:18.665Z,9.91
2023-04-13T19:58:02.966Z,10.09
2023-04-13T20:00:47.635Z,9.86
2023-04-13T20:03:33.498Z,9.61
2023-04-13T20:06:17.565Z,9.39
2023-04-13T20:09:12.049Z,9.86
2023-04-13T20:11:55.948Z,9.87
2023-04-13T20:14:42.323Z,9.90
2023-04-13T20:17:26.336Z,9.80
2023-04-13T20:20:12.362Z,9.73
2023-04-13T20:22:56.136Z,9.80
2023-04-13T20:25:40.941Z,9.66
2023-04-13T20:28:24.944Z,9.74
2023-04-13T20:31:09.167Z,9.77
2023-04-13T20:33:53.237Z,9.56
2023-04-13T20:36:38.625Z,8.35
2023-04-13T20:39:25.712Z,9.38
2023-04-13T20:42:11.702Z,9.47
2023-04-13T20:44:57.792Z,9.23
2023-04-13T20:47:42.719Z,9.31
2023-04-13T20:50:27.524Z,9.56
2023-04-13T20:53:14.885Z,9.52
2023-04-13T20:55:58.685Z,9.47
2023-04-13T20:58:42.505Z,9.46
2023-04-13T21:01:26.769Z,9.44
2023-04-13T21:04:11.229Z,9.48
2023-04-13T21:06:55.192Z,9.13
2023-04-13T21:09:41.179Z,8.80
2023-04-13T21:12:27.544Z,8.89
2023-04-13T21:15:12.272Z,8.95
2023-04-13T21:17:56.068Z,9.14
2023-04-13T21:20:40.787Z,9.17
2023-04-13T21:23:24.537Z,9.25
2023-04-13T21:26:09.811Z,9.30
2023-04-13T21:28:54.480Z,8.82
2023-04-13T21:31:38.250Z,8.81
2023-04-13T21:34:22.661Z,8.83
2023-04-13T21:37:06.398Z,8.72
2023-04-13T21:39:50.113Z,9.04
2023-04-13T21:42:36.947Z,8.92
2023-04-13T21:45:21.255Z,8.95
2023-04-13T21:48:05.775Z,8.76
2023-04-13T21:50:52.110Z,8.79
2023-04-13T21:53:36.629Z,8.53
2023-04-13T21:56:20.652Z,8.52
2023-04-13T21:59:06.133Z,8.51
2023-04-13T22:01:50.208Z,8.56
2023-04-13T22:04:34.442Z,8.88
2023-04-13T22:07:20.451Z,8.99
2023-04-13T22:10:10.590Z,8.75
2023-04-13T22:12:54.347Z,8.92
2023-04-13T22:15:39.629Z,9.02
2023-04-13T22:18:23.833Z,8.92
2023-04-13T22:21:08.247Z,9.19
2023-04-13T22:23:52.117Z,9.19
2023-04-13T22:26:35.868Z,9.12
2023-04-13T22:29:19.627Z,9.00
2023-04-13T22:32:04.848Z,8.76
2023-04-13T22:34:48.597Z,8.84
2023-04-13T22:37:34.103Z,8.79
2023-04-13T22:40:18.001Z,8.92
2023-04-13T22:43:01.792Z,9.00
2023-04-13T22:45:45.570Z,8.94
2023-04-13T22:48:30.994Z,8.89
2023-04-13T22:51:14.773Z,8.97
2023-04-13T22:53:58.520Z,8.88
2023-04-13T22:56:42.296Z,8.93
2023-04-13T22:59:26.017Z,8.94
2023-04-13T23:02:09.871Z,8.88
2023-04-13T23:04:55.213Z,8.93
2023-04-13T23:07:39.072Z,8.80
2023-04-13T23:10:22.914Z,8.46
2023-04-13T23:13:06.685Z,8.50
2023-04-13T23:15:50.593Z,8.77
2023-04-13T23:18:34.380Z,8.61
2023-04-13T23:21:19.514Z,8.75
2023-04-13T23:24:03.391Z,8.83
2023-04-13T23:26:47.117Z,8.74
2023-04-13T23:29:31.013Z,8.63
2023-04-13T23:32:14.820Z,8.68
2023-04-13T23:34:59.477Z,8.58
2023-04-13T23:37:45.450Z,8.62
2023-04-13T23:40:29.310Z,8.64
2023-04-13T23:43:13.276Z,8.73
2023-04-13T23:45:58.916Z,8.83
2023-04-13T23:48:42.856Z,8.92
2023-04-13T23:51:26.651Z,8.88
2023-04-13T23:54:12.079Z,8.94
2023-04-13T23:56:55.917Z,8.92
2023-04-13T23:59:39.676Z,8.62
